Flight Track Log - Related Links

Times and Time Zones

All times are in EDT time to prevent confusion due to time zone crossing. See the N246MP flight status page for this flight to view local times or setup timezone preferences in your user account.

Time Position Orientation Groundspeed Altitude Reporting Facility
EDT Latitude Longitude Course Direction KTS MPH feet Rate Location/Type
Sun 08:43:52 AM 46.0519 -69.5431 16° North 163 188 17,500  Level Boston Center
Sun 08:44:52 AM 46.0369 -69.6036 250° West 168 193 17,500  Level Boston Center
Sun 08:45:53 AM 46.0194 -69.6583 245° Southwest 173 199 17,500  Level Boston Center
Sun 08:46:54 AM 45.9789 -69.7019 217° Southwest 168 193 17,500  Level Boston Center
Sun 08:47:52 AM 45.9422 -69.7425 218° Southwest 173 199 17,500  Level Boston Center
Sun 08:48:54 AM 45.9100 -69.7917 227° Southwest 173 199 17,500  Level Boston Center
Sun 08:49:00 AM 45.2185 -68.6617 16° North  Level Estimated
Sun 08:49:54 AM 45.9472 -69.7781 14° North 42 48 17,500  Level Boston Center
Sun 08:50:52 AM 45.9811 -69.8006 335° Northwest 73 84 17,500 46 Level Boston Center
Sun 08:52:05 AM 45.9375 -69.8083 187° South 61 70 17,600  Climbing Boston Center
Sun 08:53:05 AM 45.8728 -69.7964 173° South 158 182 17,500 -50 Descending Boston Center
Sun 08:54:05 AM 45.8206 -69.7958 180° South 174 200 17,500  Level Boston Center
Sun 08:55:06 AM 45.7642 -69.7925 178° South 196 226 17,500  Level Boston Center
Sun 08:56:04 AM 45.7122 -69.7919 180° South 196 226 17,500  Level Boston Center
Sun 08:57:04 AM 45.6886 -69.8525 241° Southwest 156 180 17,500  Level Boston Center
Sun 08:58:05 AM 45.6606 -69.9014 231° Southwest 156 180 17,500 50 Level Boston Center
Sun 08:59:05 AM 45.6444 -69.9347 235° Southwest 161 185 17,600  Climbing Boston Center
Sun 09:00:06 AM 45.6919 -69.9089 21° North 60 69 17,500 -50 Descending Boston Center
Sun 09:01:06 AM 45.7400 -69.9128 357° North 112 129 17,500  Level Boston Center
Sun 09:02:04 AM 45.7939 -69.9103 North 154 177 17,500  Level Boston Center
Sun 09:03:06 AM 45.8439 -69.9111 359° North 176 203 17,500  Level Boston Center
Sun 09:04:06 AM 45.8961 -69.9147 357° North 182 209 17,500  Level Boston Center
Sun 09:05:04 AM 45.9442 -69.9156 359° North 175 201 17,500  Level Boston Center
Sun 09:06:05 AM 45.9939 -69.9164 359° North 180 207 17,500  Level Boston Center
Sun 09:07:05 AM 46.0439 -69.9172 359° North 180 207 17,500  Level Boston Center
Sun 09:08:04 AM 46.0942 -69.9208 357° North 180 207 17,500  Level Boston Center
Sun 09:09:04 AM 46.1461 -69.9214 360° North 180 207 17,500  Level Boston Center
Sun 09:10:06 AM 46.1961 -69.9192 North 180 207 17,500  Level Boston Center
Sun 09:11:06 AM 46.2439 -69.9172 North 180 207 17,500  Level Boston Center
Sun 09:12:04 AM 46.2961 -69.9208 357° North 180 207 17,500  Level Boston Center
Sun 09:13:05 AM 46.3503 -69.9214 360° North 180 207 17,500  Level Boston Center
Sun 09:14:05 AM 46.4003 -69.9253 357° North 180 207 17,500  Level Boston Center
Sun 09:15:04 AM 46.4522 -69.9258 360° North 180 207 17,500  Level Boston Center
Sun 09:16:04 AM 46.5022 -69.9236 North 180 207 17,500  Level Boston Center
Sun 09:17:05 AM 46.5544 -69.9272 357° North 180 207 17,500 -49 Level Boston Center
Sun 09:18:07 AM 46.6044 -69.9281 359° North 180 207 17,400 -50 Descending Boston Center
Sun 09:19:04 AM 46.6564 -69.9286 360° North 180 207 17,400  Level Boston Center
Sun 09:20:04 AM 46.6511 -69.9803 262° West 93 107 17,400  Level Boston Center
Sun 09:21:05 AM 46.6014 -69.9917 189° South 103 119 17,400 49 Level Boston Center
Sun 09:22:06 AM 46.5472 -69.9881 177° South 144 166 17,500 50 Climbing Boston Center
Sun 09:23:04 AM 46.4931 -69.9872 179° South 178 205 17,500  Level Boston Center
Sun 09:24:04 AM 46.4389 -69.9867 180° South 190 219 17,500  Level Boston Center
Sun 09:25:17 AM 46.3764 -69.9833 178° South 195 224 17,500  Level Boston Center
Sun 09:26:17 AM 46.3222 -69.9828 180° South 195 224 17,500  Level Boston Center
Sun 09:27:18 AM 46.2725 -69.9819 179° South 195 224 17,500  Level Boston Center
Sun 09:28:18 AM 46.2203 -69.9811 179° South 195 224 17,500  Level Boston Center
Sun 09:29:16 AM 46.1661 -69.9775 177° South 195 224 17,500  Level Boston Center
Sun 09:30:28 AM 46.1119 -69.9800 182° South 195 224 17,500  Level Boston Center
Sun 09:31:29 AM 46.0514 -69.9767 178° South 195 224 17,500  Level Boston Center
Sun 09:32:30 AM 46.0036 -69.9756 179° South 195 224 17,500  Level Boston Center
Sun 09:33:30 AM 45.9494 -69.9781 182° South 195 224 17,500  Level Boston Center
Sun 09:34:30 AM 45.8953 -69.9714 175° South 195 224 17,500  Level Boston Center
Sun 09:35:28 AM 45.8433 -69.9767 184° South 195 224 17,500  Level Boston Center
Sun 09:36:30 AM 45.7889 -69.9700 175° South 195 224 17,500  Level Boston Center
Sun 09:37:30 AM 45.7350 -69.9725 182° South 195 224 17,500  Level Boston Center
Sun 09:38:30 AM 45.6806 -69.9600 171° South 195 224 17,500  Level Boston Center
Sun 09:39:28 AM 45.6544 -70.0056 231° Southwest 150 173 17,500  Level Boston Center
Sun 09:40:29 AM 45.6967 -70.0336 335° Northwest 68 78 17,500  Level Boston Center
Sun 09:41:29 AM 45.7486 -70.0314 North 114 131 17,500  Level Boston Center
Sun 09:42:29 AM 45.8008 -70.0319 360° North 155 178 17,500  Level Boston Center
Sun 09:43:30 AM 45.8508 -70.0331 359° North 175 201 17,500  Level Boston Center
Sun 09:44:28 AM 45.9028 -70.0367 357° North 180 207 17,500  Level Boston Center
Sun 09:45:28 AM 45.9528 -70.0375 359° North 180 207 17,500  Level Boston Center
Sun 09:46:29 AM 46.0028 -70.0356 North 180 207 17,500  Level Boston Center
Sun 09:47:30 AM 46.0528 -70.0364 359° North 180 207 17,500  Level Boston Center
Sun 09:48:30 AM 46.1028 -70.0372 359° North 180 207 17,500  Level Boston Center
Sun 09:49:28 AM 46.1528 -70.0411 357° North 180 207 17,500  Level Boston Center
Sun 09:50:29 AM 46.2028 -70.0389 North 180 207 17,500  Level Boston Center
Sun 09:51:28 AM 46.2550 -70.0428 357° North 180 207 17,500  Level Boston Center
Sun 09:52:28 AM 46.3050 -70.0436 359° North 180 207 17,500  Level Boston Center
Sun 09:53:29 AM 46.3569 -70.0444 359° North 180 207 17,500  Level Boston Center
Sun 09:54:30 AM 46.4092 -70.0481 357° North 180 207 17,500  Level Boston Center
Sun 09:55:30 AM 46.4589 -70.0461 North 180 207 17,500  Level Boston Center
Sun 09:56:29 AM 46.5111 -70.0469 359° North 180 207 17,500  Level Boston Center
Sun 09:57:29 AM 46.5611 -70.0508 357° North 180 207 17,500 -50 Level Boston Center
Sun 09:58:28 AM 46.6131 -70.0514 360° North 180 207 17,400 -50 Descending Boston Center
Sun 09:59:28 AM 46.6119 -70.1000 268° West 100 115 17,400 50 Level Boston Center
Sun 10:00:29 AM 46.5622 -70.1081 186° South 76 87 17,500 50 Climbing Boston Center
Sun 10:01:29 AM 46.5081 -70.1072 179° South 142 163 17,500  Level Boston Center
Sun 10:02:30 AM 46.4539 -70.1064 179° South 172 198 17,500  Level Boston Center
Sun 10:03:30 AM 46.3997 -70.1058 180° South 191 220 17,500  Level Boston Center
Sun 10:04:30 AM 46.3497 -70.1047 179° South 198 228 17,500  Level Boston Center
Sun 10:05:28 AM 46.2936 -70.1011 177° South 198 228 17,500  Level Boston Center
Sun 10:06:29 AM 46.2394 -70.1003 179° South 198 228 17,500  Level Boston Center
Sun 10:07:30 AM 46.1875 -70.1025 182° South 198 228 17,500  Level Boston Center
Sun 10:08:28 AM 46.1353 -70.0986 177° South 198 228 17,500  Level Boston Center
Sun 10:09:28 AM 46.0811 -70.1008 182° South 198 228 17,500  Level Boston Center
Sun 10:10:28 AM 46.0311 -70.1000 179° South 198 228 17,500  Level Boston Center
Sun 10:11:29 AM 45.9872 -70.0928 173° South 198 228 17,500  Level Boston Center
Sun 10:12:30 AM 45.9228 -70.0956 182° South 198 228 17,500  Level Boston Center
Sun 10:13:28 AM 45.8708 -70.0947 179° South 198 228 17,500  Level Boston Center
Sun 10:14:29 AM 45.8164 -70.0908 177° South 198 228 17,500  Level Boston Center
Sun 10:15:29 AM 45.7644 -70.0931 182° South 198 228 17,500  Level Boston Center
Sun 10:16:30 AM 45.7081 -70.0894 177° South 198 228 17,500  Level Boston Center
Sun 10:17:28 AM 45.6561 -70.0944 184° South 193 222 17,500  Level Boston Center
Sun 10:18:28 AM 45.6678 -70.1506 287° West 104 120 17,500  Level Boston Center
Sun 10:19:29 AM 45.7219 -70.1514 359° North 108 124 17,500  Level Boston Center
Sun 10:20:29 AM 45.7739 -70.1522 359° North 135 155 17,500  Level Boston Center
Sun 10:21:30 AM 45.8156 -70.1536 359° North 163 188 17,500  Level Boston Center
Sun 10:22:28 AM 45.8781 -70.1539 360° North 182 209 17,500  Level Boston Center
Sun 10:23:29 AM 45.9283 -70.1581 357° North 182 209 17,500  Level Boston Center
Sun 10:24:30 AM 45.9803 -70.1589 359° North 182 209 17,500  Level Boston Center
Sun 10:25:28 AM 46.0322 -70.1597 359° North 182 209 17,500  Level Boston Center
Sun 10:26:29 AM 46.0822 -70.1606 359° North 177 204 17,500  Level Boston Center
Sun 10:27:29 AM 46.1303 -70.1589 North 177 204 17,500  Level Boston Center
Sun 10:28:30 AM 46.1822 -70.1628 357° North 177 204 17,500  Level Boston Center
Sun 10:29:28 AM 46.2303 -70.1608 North 177 204 17,500  Level Boston Center
Sun 10:30:29 AM 46.2822 -70.1647 357° North 177 204 17,500  Level Boston Center
Sun 10:31:29 AM 46.3322 -70.1686 357° North 177 204 17,500  Level Boston Center
Sun 10:32:30 AM 46.3822 -70.1667 North 177 204 17,500  Level Boston Center
Sun 10:33:31 AM 46.4344 -70.1675 359° North 177 204 17,500  Level Boston Center
Sun 10:34:28 AM 46.4864 -70.1683 359° North 177 204 17,500  Level Boston Center
Sun 10:35:29 AM 46.5339 -70.1514 14° North 177 204 17,500 49 Level Boston Center
Sun 10:36:30 AM 46.5308 -70.2028 265° West 90 104 17,600  Climbing Boston Center
Sun 10:37:42 AM 46.4875 -70.2256 200° South 90 104 17,500 -46 Descending Boston Center
Sun 10:38:40 AM 46.4208 -70.2222 178° South 146 168 17,500  Level Boston Center
Sun 10:39:53 AM 46.3667 -70.2244 182° South 182 209 17,500  Level Boston Center
Sun 10:40:53 AM 46.3022 -70.2208 178° South 195 224 17,500  Level Boston Center
Sun 10:41:53 AM 46.2478 -70.2169 177° South 195 224 17,500  Level Boston Center
Sun 10:42:52 AM 46.1939 -70.2192 182° South 195 224 17,500  Level Boston Center
Sun 10:43:52 AM 46.1397 -70.2183 179° South 195 224 17,500  Level Boston Center
Sun 10:44:53 AM 46.0833 -70.2144 177° South 200 230 17,500  Level Boston Center
Sun 10:46:00 AM 46.0901 -70.1912 67° East  Level Estimated
Sun 10:46:53 AM 45.9833 -70.2125 67° East 193 222 17,500  Level Boston Center
Sun 10:47:53 AM 45.9314 -70.2114 179° South 198 228 17,500  Level Boston Center
Sun 10:48:54 AM 45.8750 -70.2108 180° South 198 228 17,500  Level Boston Center
Sun 10:49:54 AM 45.8231 -70.2128 181° South 198 228 17,500  Level Boston Center
Sun 10:50:52 AM 45.7689 -70.2089 177° South 198 228 17,500  Level Boston Center
Sun 10:51:52 AM 45.7167 -70.2081 179° South 198 228 17,500  Level Boston Center
Sun 10:52:53 AM 45.6647 -70.2042 177° South 198 228 17,500  Level Boston Center
Sun 10:53:53 AM 45.6781 -70.2569 290° West 99 114 17,500  Level Boston Center
Sun 10:55:06 AM 45.7261 -70.2611 357° North 78 90 17,500  Level Boston Center
Sun 10:56:07 AM 45.7906 -70.2617 360° North 136 157 17,500  Level Boston Center
Sun 10:57:04 AM 45.8428 -70.2656 357° North 163 188 17,500  Level Boston Center
Sun 10:58:04 AM 45.8928 -70.2667 359° North 179 206 17,500  Level Boston Center
Sun 10:59:05 AM 45.9469 -70.2675 359° North 179 206 17,500 -50 Level Boston Center
Sun 11:00:05 AM 45.9969 -70.2686 359° North 179 206 17,400 -50 Descending Boston Center
Sun 11:01:06 AM 46.0469 -70.2758 354° North 179 206 17,400  Level Boston Center
Sun 11:02:04 AM 46.0969 -70.2708 North 179 206 17,400  Level Boston Center
Sun 11:03:05 AM 46.1489 -70.2719 359° North 179 206 17,400  Level Boston Center
Sun 11:04:05 AM 46.1989 -70.2731 359° North 179 206 17,400  Level Boston Center
Sun 11:05:06 AM 46.2511 -70.2739 359° North 179 206 17,400  Level Boston Center
Sun 11:06:06 AM 46.3031 -70.2778 357° North 179 206 17,400  Level Boston Center
Sun 11:07:04 AM 46.3531 -70.2761 North 179 206 17,400  Level Boston Center
Sun 11:08:04 AM 46.4031 -70.2800 357° North 179 206 17,400  Level Boston Center
Sun 11:09:05 AM 46.4350 -70.3119 325° Northwest 138 159 17,400 49 Level Boston Center
Sun 11:10:06 AM 46.3894 -70.3347 199° South 62 71 17,500  Climbing Boston Center
Sun 11:11:06 AM 46.3356 -70.3339 179° South 107 123 17,400 -51 Descending Boston Center
Sun 11:12:04 AM 46.2814 -70.3358 181° South 165 190 17,400  Level Boston Center
Sun 11:13:04 AM 46.2272 -70.3319 177° South 183 211 17,400  Level Boston Center
Sun 11:14:05 AM 46.1708 -70.3281 177° South 194 223 17,400  Level Boston Center
Sun 11:15:18 AM 46.1167 -70.3269 179° South 199 229 17,400  Level Boston Center
Sun 11:16:16 AM 46.0500 -70.3264 180° South 199 229 17,400  Level Boston Center
Sun 11:17:16 AM 46.0000 -70.3222 177° South 199 229 17,400  Level Boston Center
Sun 11:18:29 AM 45.9481 -70.3242 181° South 199 229 17,400  Level Boston Center
Sun 11:19:42 AM 45.8814 -70.3239 180° South 199 229 17,400  Level Boston Center
Sun 11:20:40 AM 45.8147 -70.3203 178° South 199 229 17,400 51 Level Boston Center
Sun 11:21:40 AM 45.7625 -70.3192 179° South 199 229 17,500 50 Climbing Boston Center
Sun 11:22:41 AM 45.7083 -70.3153 177° South 199 229 17,500  Level Boston Center
Sun 11:23:42 AM 45.6583 -70.3083 174° South 199 229 17,500  Level Boston Center
Sun 11:24:40 AM 45.6489 -70.3622 256° West 151 174 17,500  Level Boston Center
Sun 11:25:41 AM 45.6989 -70.3722 352° North 76 87 17,500  Level Boston Center
Sun 11:26:41 AM 45.7531 -70.3731 359° North 142 163 17,500 -50 Level Boston Center
Sun 11:27:42 AM 45.8011 -70.3744 359° North 163 188 17,400 -50 Descending Boston Center
Sun 11:28:42 AM 45.8531 -70.3783 357° North 178 205 17,400  Level Boston Center
Sun 11:29:41 AM 45.9053 -70.3767 North 178 205 17,400  Level Boston Center
Sun 11:30:42 AM 45.9553 -70.3808 357° North 178 205 17,400  Level Boston Center
Sun 11:31:42 AM 46.0053 -70.3819 359° North 178 205 17,400  Level Boston Center
Sun 11:32:40 AM 46.0636 -70.3828 359° North 178 205 17,400  Level Boston Center
Sun 11:33:40 AM 46.1156 -70.3839 359° North 178 205 17,400  Level Boston Center
Sun 11:34:41 AM 46.1247 -70.4344 285° West 136 157 17,400 49 Level Boston Center
Sun 11:35:42 AM 46.0686 -70.4333 179° South 78 90 17,500  Climbing Boston Center
Sun 11:36:43 AM 46.0144 -70.4353 181° South 143 165 17,400 -50 Descending Boston Center
Sun 11:37:41 AM 45.9625 -70.4372 181° South 177 204 17,400  Level Boston Center
Sun 11:38:41 AM 45.9061 -70.4331 177° South 197 227 17,400  Level Boston Center
Sun 11:39:42 AM 45.8500 -70.4322 179° South 203 234 17,400  Level Boston Center
Sun 11:40:43 AM 45.7978 -70.4311 179° South 203 234 17,400 51 Level Boston Center
Sun 11:41:40 AM 45.7417 -70.4300 179° South 196 226 17,500 51 Climbing Boston Center
Sun 11:42:41 AM 45.6894 -70.4200 172° South 196 226 17,500  Level Boston Center
Sun 11:43:41 AM 45.6881 -70.3489 92° East 144 166 17,500 50 Level Boston Center
Sun 11:44:41 AM 45.7419 -70.3261 16° North 94 108 17,600 -50 Climbing Boston Center
Sun 11:45:40 AM 45.7914 -70.3064 16° North 140 161 17,400 -100 Descending Boston Center
Sun 11:46:41 AM 45.8453 -70.2833 17° North 173 199 17,400  Level Boston Center
Sun 11:47:41 AM 45.8969 -70.2606 17° North 187 215 17,400  Level Boston Center
Sun 11:48:40 AM 45.9486 -70.2436 13° North 187 215 17,400  Level Boston Center
Sun 11:49:40 AM 45.9919 -70.2300 12° North 187 215 17,400  Level Boston Center
Sun 11:50:41 AM 46.0386 -70.1625 45° Northeast 187 215 17,400  Level Boston Center
Sun 11:51:41 AM 46.0750 -70.1011 49° Northeast 193 222 17,400  Level Boston Center
Sun 11:52:42 AM 46.1175 -70.0425 44° Northeast 193 222 17,400  Level Boston Center
Sun 11:53:42 AM 46.1536 -69.9750 52° Northeast 200 230 17,400  Level Boston Center
Sun 11:54:40 AM 46.1875 -69.9078 54° Northeast 205 236 17,400  Level Boston Center
Sun 11:55:40 AM 46.2236 -69.8431 51° Northeast 205 236 17,400  Level Boston Center
Sun 11:56:41 AM 46.2594 -69.7753 53° Northeast 210 242 17,400  Level Boston Center
Sun 11:57:41 AM 46.2975 -69.7075 51° Northeast 210 242 17,400  Level Boston Center
Sun 11:58:42 AM 46.3314 -69.6397 54° Northeast 210 242 17,400  Level Boston Center
Sun 11:59:42 AM 46.3672 -69.5719 53° Northeast 210 242 17,400  Level Boston Center
Sun 12:00:41 PM 46.4008 -69.5039 54° Northeast 210 242 17,400  Level Boston Center
Sun 12:01:41 PM 46.4367 -69.4358 53° Northeast 210 242 17,400  Level Boston Center
Sun 12:02:42 PM 46.4658 -69.3589 61° Northeast 210 242 17,400 50 Level Boston Center
Sun 12:03:40 PM 46.5128 -69.3200 30° Northeast 194 223 17,500  Climbing Boston Center
Sun 12:05:00 PM 46.5171 -69.2903 78° East  Level Estimated
Sun 12:05:41 PM 46.6153 -69.2661 78° East 194 223 17,400  Level Boston Center
Sun 12:06:53 PM 46.6158 -69.2025 89° East 119 137 17,400  Level Boston Center
Sun 12:07:54 PM 46.5856 -69.2467 225° Southwest 32 37 17,400  Level Boston Center
Sun 12:08:54 PM 46.5486 -69.1825 130° Southeast 113 130 17,400 -99 Level Boston Center
Sun 12:09:55 PM 46.5569 -69.1064 81° East 153 176 17,200 -508 Descending Boston Center
Sun 12:10:52 PM 46.5703 -68.9969 80° East 199 229 16,400 -857 Descending Boston Center
Sun 12:11:54 PM 46.5800 -68.8997 82° East 224 258 15,500 -885 Descending Boston Center
Sun 12:12:54 PM 46.5919 -68.8144 78° East 229 264 14,600 -1,017 Descending Boston Center
Sun 12:13:52 PM 46.6019 -68.7414 79° East 206 237 13,500 -1,160 Descending Boston Center
Sun 12:14:53 PM 46.6122 -68.6650 79° East 196 226 12,300 -1,230 Descending Boston Center
Sun 12:15:54 PM 46.6222 -68.5889 79° East 186 214 11,000 -1,289 Descending Boston Center
Sun 12:16:54 PM 46.6303 -68.5158 81° East 181 208 9,700 -1,271 Descending Boston Center
Sun 12:17:52 PM 46.6400 -68.4394 79° East 181 208 8,500 -1,169 Descending Boston Center
Sun 12:18:52 PM 46.6417 -68.3669 88° East 181 208 7,400 -1,100 Descending Boston Center
Sun 12:20:00 PM 46.6424 -68.3411 87° East  Level FlightAware Approximate

Login

Don't have an account? Register now (free) for customized features, flight alerts, and more!